createdAt,value
2022-12-18T00:02:07.364Z,70.23
2022-12-18T00:04:35.305Z,69.45
2022-12-18T00:07:03.154Z,70.03
2022-12-18T00:09:39.846Z,69.39
2022-12-18T00:14:46.926Z,68.27
2022-12-18T00:17:16.139Z,67.92
2022-12-18T00:19:44.041Z,68.78
2022-12-18T00:22:12.021Z,69.15
2022-12-18T00:24:39.920Z,68.94
2022-12-18T00:27:07.921Z,68.77
2022-12-18T00:29:35.925Z,68.87
2022-12-18T00:32:04.105Z,68.71
2022-12-18T00:34:33.371Z,68.41
2022-12-18T00:37:01.293Z,69.53
2022-12-18T00:39:29.301Z,69.32
2022-12-18T00:42:14.467Z,69.31
2022-12-18T00:44:42.544Z,70.02
2022-12-18T00:47:10.456Z,69.64
2022-12-18T00:49:39.735Z,69.82
2022-12-18T00:52:07.502Z,70.36
2022-12-18T00:54:35.430Z,69.59
2022-12-18T00:57:06.206Z,69.61
2022-12-18T00:59:34.181Z,69.73
2022-12-18T01:02:02.033Z,69.30
2022-12-18T01:04:34.693Z,69.90
2022-12-18T01:07:04.011Z,69.95
2022-12-18T01:09:32.930Z,69.31
2022-12-18T01:12:00.839Z,69.56
2022-12-18T01:14:29.006Z,69.23
2022-12-18T01:16:56.761Z,69.11
2022-12-18T01:19:25.600Z,69.64
2022-12-18T01:21:53.421Z,69.46
2022-12-18T01:24:22.759Z,69.37
2022-12-18T01:26:51.048Z,69.18
2022-12-18T01:29:19.057Z,69.11
2022-12-18T01:31:46.946Z,69.38
2022-12-18T01:34:14.786Z,69.48
2022-12-18T01:36:43.302Z,69.11
2022-12-18T01:39:13.679Z,68.62
2022-12-18T01:42:02.375Z,68.61
2022-12-18T01:44:57.958Z,69.50
2022-12-18T01:47:29.390Z,69.19
2022-12-18T01:49:58.876Z,69.52
2022-12-18T01:52:30.213Z,69.00
2022-12-18T01:54:58.648Z,69.25
2022-12-18T01:57:30.041Z,68.84
2022-12-18T02:00:02.480Z,69.67
2022-12-18T02:02:42.190Z,69.49
2022-12-18T02:05:12.187Z,68.94
2022-12-18T02:07:46.522Z,69.59
2022-12-18T02:10:20.469Z,68.88
2022-12-18T02:12:58.520Z,69.67
2022-12-18T02:15:33.776Z,68.65
2022-12-18T02:18:08.489Z,69.00
2022-12-18T02:20:41.985Z,68.84
2022-12-18T02:23:20.894Z,69.78
2022-12-18T02:26:09.666Z,69.52
2022-12-18T02:28:44.258Z,69.54
2022-12-18T02:31:17.797Z,69.65
2022-12-18T02:33:47.183Z,69.07
2022-12-18T02:36:18.303Z,70.02
2022-12-18T02:38:47.959Z,69.40
2022-12-18T02:41:20.418Z,69.53
2022-12-18T02:43:49.574Z,70.00
2022-12-18T02:46:34.277Z,70.58
2022-12-18T02:49:18.327Z,69.83
2022-12-18T02:51:54.672Z,69.27
2022-12-18T02:54:35.797Z,70.08
2022-12-18T02:57:15.346Z,69.48
2022-12-18T02:59:50.571Z,69.75
2022-12-18T03:02:24.210Z,69.36
2022-12-18T03:05:01.455Z,69.65
2022-12-18T03:07:41.266Z,69.38
2022-12-18T03:10:16.522Z,69.22
2022-12-18T03:12:51.954Z,69.94
2022-12-18T03:15:25.418Z,69.27
2022-12-18T03:18:05.409Z,68.87
2022-12-18T03:20:36.319Z,69.55
2022-12-18T03:23:09.155Z,69.80
2022-12-18T03:25:41.785Z,69.99
2022-12-18T03:28:15.064Z,69.43
2022-12-18T03:30:46.712Z,69.36
2022-12-18T03:33:20.636Z,69.47
2022-12-18T03:35:51.155Z,69.16
2022-12-18T03:38:20.612Z,70.01
2022-12-18T03:41:01.464Z,69.70
2022-12-18T03:43:45.821Z,69.70
2022-12-18T03:46:24.510Z,69.49
2022-12-18T03:48:58.290Z,69.55
2022-12-18T03:51:30.550Z,69.50
2022-12-18T03:54:02.176Z,69.26
2022-12-18T03:56:39.296Z,68.94
2022-12-18T03:59:12.105Z,69.01
2022-12-18T04:01:43.923Z,69.15
2022-12-18T04:04:16.686Z,69.44
2022-12-18T04:06:47.885Z,69.19
2022-12-18T04:09:16.806Z,69.31
2022-12-18T04:11:48.309Z,69.36
2022-12-18T04:14:19.120Z,68.97
2022-12-18T04:16:50.916Z,69.16
2022-12-18T04:19:22.714Z,69.20
2022-12-18T04:21:52.329Z,69.08
2022-12-18T04:24:20.391Z,69.20
2022-12-18T04:27:05.031Z,68.67
2022-12-18T04:29:41.913Z,68.47
2022-12-18T04:32:10.296Z,68.75
2022-12-18T04:34:39.137Z,68.68
2022-12-18T04:37:07.057Z,68.82
2022-12-18T04:39:34.917Z,68.32
2022-12-18T04:42:08.198Z,68.96
2022-12-18T04:44:36.223Z,68.94
2022-12-18T04:47:05.768Z,68.31
2022-12-18T04:49:33.572Z,68.95
2022-12-18T04:52:01.416Z,68.67
2022-12-18T04:54:29.988Z,68.73
2022-12-18T04:56:57.900Z,69.08
2022-12-18T04:59:25.739Z,68.63
2022-12-18T05:01:53.554Z,68.64
2022-12-18T05:04:23.282Z,68.53
2022-12-18T05:06:51.199Z,68.55
2022-12-18T05:09:19.052Z,68.77
2022-12-18T05:11:47.644Z,68.41
2022-12-18T05:14:15.410Z,68.56
2022-12-18T05:16:43.282Z,68.21
2022-12-18T05:19:11.913Z,68.16
2022-12-18T05:21:41.420Z,68.36
2022-12-18T05:24:09.390Z,67.69
2022-12-18T05:26:37.298Z,68.52
2022-12-18T05:29:05.193Z,68.44
2022-12-18T05:31:38.868Z,68.02
2022-12-18T05:34:07.639Z,68.20
2022-12-18T05:36:35.412Z,67.92
2022-12-18T05:39:05.059Z,68.19
2022-12-18T05:41:34.019Z,68.08
2022-12-18T05:44:03.255Z,68.29
2022-12-18T05:46:31.462Z,68.23
2022-12-18T05:49:01.482Z,68.76
2022-12-18T05:51:29.824Z,68.54
2022-12-18T05:53:57.658Z,69.24
2022-12-18T05:56:27.057Z,68.97
2022-12-18T05:58:55.790Z,69.19
2022-12-18T06:01:26.211Z,69.30
2022-12-18T06:03:54.422Z,69.26
2022-12-18T06:06:24.791Z,69.18
2022-12-18T06:08:53.154Z,68.90
2022-12-18T06:11:23.408Z,69.26
2022-12-18T06:13:58.238Z,69.35
2022-12-18T06:16:27.521Z,69.41
2022-12-18T06:18:55.508Z,68.90
2022-12-18T06:21:23.427Z,69.10
2022-12-18T06:23:51.260Z,69.29
2022-12-18T06:26:22.138Z,69.07
2022-12-18T06:28:55.523Z,69.11
2022-12-18T06:31:23.435Z,69.47
2022-12-18T06:33:51.464Z,69.61
2022-12-18T06:36:19.411Z,70.73
2022-12-18T06:38:47.304Z,70.13
2022-12-18T06:41:17.546Z,70.54
2022-12-18T06:43:46.111Z,70.20
2022-12-18T06:46:15.412Z,70.75
2022-12-18T06:48:43.579Z,70.55
2022-12-18T06:51:11.369Z,71.12
2022-12-18T06:53:40.106Z,71.88
2022-12-18T06:56:10.913Z,71.72
2022-12-18T06:58:39.703Z,71.84
2022-12-18T07:01:09.920Z,72.26
2022-12-18T07:03:39.882Z,72.99
2022-12-18T07:06:14.281Z,72.67
2022-12-18T07:08:42.144Z,72.63
2022-12-18T07:11:10.053Z,72.57
2022-12-18T07:13:38.283Z,72.16
2022-12-18T07:16:14.410Z,71.50
2022-12-18T07:18:46.832Z,70.99
2022-12-18T07:21:16.735Z,71.32
2022-12-18T07:23:45.790Z,71.47
2022-12-18T07:26:14.953Z,71.58
2022-12-18T07:28:44.140Z,71.41
2022-12-18T07:31:14.310Z,71.19
2022-12-18T07:33:43.062Z,70.79
2022-12-18T07:36:13.368Z,70.07
2022-12-18T07:38:41.532Z,70.30
2022-12-18T07:41:11.729Z,70.83
2022-12-18T07:43:40.934Z,70.74
2022-12-18T07:46:12.751Z,70.95
2022-12-18T07:48:42.197Z,70.15
2022-12-18T07:51:14.382Z,70.44
2022-12-18T07:53:43.689Z,70.50
2022-12-18T07:56:31.116Z,70.27
2022-12-18T07:59:00.115Z,69.94
2022-12-18T08:01:28.671Z,69.91
2022-12-18T08:03:56.744Z,69.42
2022-12-18T08:06:26.022Z,69.47
2022-12-18T08:08:54.848Z,69.32
2022-12-18T08:11:22.932Z,69.25
2022-12-18T08:13:50.824Z,69.10
2022-12-18T08:16:19.674Z,69.60
2022-12-18T08:18:48.650Z,68.95
2022-12-18T08:21:19.189Z,69.05
2022-12-18T08:23:51.805Z,68.68
2022-12-18T08:26:21.002Z,69.28
2022-12-18T08:28:50.157Z,68.79
2022-12-18T08:31:19.492Z,68.66
2022-12-18T08:33:49.908Z,68.60
2022-12-18T08:36:18.132Z,68.80
2022-12-18T08:38:46.054Z,68.76
2022-12-18T08:41:16.937Z,68.92
2022-12-18T08:44:02.598Z,68.83
2022-12-18T08:46:35.951Z,68.60
2022-12-18T08:49:05.095Z,68.89
2022-12-18T08:51:33.301Z,68.90
2022-12-18T08:54:01.180Z,68.91
2022-12-18T08:56:30.944Z,69.03
2022-12-18T08:58:59.437Z,68.62
2022-12-18T09:01:27.749Z,69.25
2022-12-18T09:03:55.751Z,69.21
2022-12-18T09:06:24.578Z,68.53
2022-12-18T09:08:52.417Z,68.46
2022-12-18T09:11:22.955Z,68.27
2022-12-18T09:13:52.870Z,68.12
2022-12-18T09:16:22.035Z,68.30
2022-12-18T09:18:51.867Z,68.56
2022-12-18T09:21:21.558Z,67.95
2022-12-18T09:23:51.968Z,67.49
2022-12-18T09:26:19.842Z,67.40
2022-12-18T09:28:47.986Z,67.22
2022-12-18T09:31:19.784Z,67.39
2022-12-18T09:33:47.692Z,66.91
2022-12-18T09:36:17.918Z,67.24
2022-12-18T09:38:46.493Z,66.33
2022-12-18T09:41:35.845Z,66.90
2022-12-18T09:44:07.528Z,67.49
2022-12-18T09:46:41.441Z,67.69
2022-12-18T09:49:15.446Z,67.81
2022-12-18T09:51:48.309Z,67.33
2022-12-18T09:54:20.608Z,67.79
2022-12-18T09:56:48.957Z,67.91
2022-12-18T09:59:23.123Z,67.52
2022-12-18T10:01:52.585Z,68.14
2022-12-18T10:04:20.695Z,67.82
2022-12-18T10:06:56.508Z,67.75
2022-12-18T10:09:30.754Z,67.47
2022-12-18T10:12:09.490Z,66.96
2022-12-18T10:14:45.373Z,66.75
2022-12-18T10:17:27.575Z,66.81
2022-12-18T10:20:01.511Z,66.91
2022-12-18T10:22:47.931Z,66.19
2022-12-18T10:25:22.575Z,65.69
2022-12-18T10:27:54.687Z,65.63
2022-12-18T10:30:24.945Z,66.04
2022-12-18T10:32:55.169Z,64.91
2022-12-18T10:35:28.126Z,64.82
2022-12-18T10:38:07.521Z,64.61
2022-12-18T10:40:51.507Z,65.02
2022-12-18T10:43:24.057Z,64.79
2022-12-18T10:46:02.748Z,65.30
2022-12-18T10:48:34.038Z,66.21
2022-12-18T10:51:10.913Z,65.71
2022-12-18T10:53:44.534Z,65.56
2022-12-18T10:56:13.014Z,65.96
2022-12-18T10:58:41.822Z,66.03
2022-12-18T11:01:13.210Z,65.50
2022-12-18T11:03:44.575Z,66.26
2022-12-18T11:06:14.800Z,66.42
2022-12-18T11:08:44.345Z,66.50
2022-12-18T11:11:21.493Z,66.62
2022-12-18T11:14:00.024Z,66.34
2022-12-18T11:16:35.388Z,66.04
2022-12-18T11:19:23.615Z,66.47
2022-12-18T11:21:51.624Z,66.35
2022-12-18T11:24:27.047Z,65.70
2022-12-18T11:26:59.702Z,65.78
2022-12-18T11:29:34.572Z,65.67
2022-12-18T11:32:25.937Z,65.74
2022-12-18T11:35:04.079Z,65.73
2022-12-18T11:37:34.841Z,66.39
2022-12-18T11:40:09.088Z,66.65
2022-12-18T11:42:43.463Z,65.93
2022-12-18T11:45:26.995Z,66.33
2022-12-18T11:48:00.974Z,66.85
2022-12-18T11:50:35.903Z,66.54
2022-12-18T11:53:06.375Z,66.25
2022-12-18T11:55:43.434Z,66.35
2022-12-18T11:58:22.466Z,65.79
2022-12-18T12:01:02.308Z,65.98
2022-12-18T12:03:49.664Z,66.08
2022-12-18T12:06:27.346Z,66.58
2022-12-18T12:09:06.282Z,66.30
2022-12-18T12:11:45.152Z,66.44
2022-12-18T12:14:43.013Z,66.19
2022-12-18T12:17:19.384Z,66.78
2022-12-18T12:19:53.588Z,66.72
2022-12-18T12:22:31.113Z,66.56
2022-12-18T12:25:13.491Z,67.00
2022-12-18T12:27:52.215Z,66.96
2022-12-18T12:30:23.078Z,66.56
2022-12-18T12:33:06.877Z,67.23
2022-12-18T12:35:48.784Z,66.98
2022-12-18T12:38:23.041Z,66.91
2022-12-18T12:41:02.489Z,66.88
2022-12-18T12:43:39.148Z,66.82
2022-12-18T12:46:12.885Z,66.47
2022-12-18T12:48:45.455Z,66.13
2022-12-18T12:51:18.398Z,65.91
2022-12-18T12:53:48.198Z,65.89
2022-12-18T12:56:18.924Z,65.77
2022-12-18T12:58:58.329Z,65.44
2022-12-18T13:01:36.047Z,65.31
2022-12-18T13:04:17.708Z,65.38
2022-12-18T13:06:52.380Z,64.86
2022-12-18T13:09:21.985Z,65.09
2022-12-18T13:12:08.188Z,64.88
2022-12-18T13:14:38.914Z,64.61
2022-12-18T13:17:31.153Z,64.65
2022-12-18T13:20:08.996Z,64.39
2022-12-18T13:22:38.986Z,64.38
2022-12-18T13:25:31.390Z,64.21
2022-12-18T13:28:05.367Z,64.07
2022-12-18T13:30:58.136Z,63.65
2022-12-18T13:33:51.086Z,63.71
2022-12-18T13:36:31.268Z,63.64
2022-12-18T13:39:32.707Z,63.31
2022-12-18T13:42:57.251Z,63.33
2022-12-18T13:45:43.762Z,62.92
2022-12-18T13:48:20.319Z,63.15
2022-12-18T13:50:54.018Z,63.29
2022-12-18T13:53:25.739Z,62.97
2022-12-18T13:55:54.026Z,63.06
2022-12-18T13:58:21.788Z,62.71
2022-12-18T14:00:52.362Z,62.93
2022-12-18T14:03:24.069Z,63.04
2022-12-18T14:06:02.852Z,62.66
2022-12-18T14:08:37.912Z,62.85
2022-12-18T14:11:07.892Z,62.86
2022-12-18T14:13:41.353Z,62.79
2022-12-18T14:16:16.297Z,62.52
2022-12-18T14:18:48.507Z,62.78
2022-12-18T14:21:22.818Z,62.68
2022-12-18T14:24:04.300Z,62.90
2022-12-18T14:26:34.223Z,63.00
2022-12-18T14:29:16.331Z,63.78
2022-12-18T14:31:46.603Z,63.88
2022-12-18T14:34:17.908Z,64.01
2022-12-18T14:36:54.840Z,63.79
2022-12-18T14:39:23.185Z,64.02
2022-12-18T14:41:51.873Z,64.45
2022-12-18T14:44:19.703Z,64.50
2022-12-18T14:46:50.014Z,64.37
2022-12-18T14:49:24.634Z,64.06
2022-12-18T14:51:55.128Z,64.65
2022-12-18T14:54:25.338Z,64.69
2022-12-18T14:56:58.689Z,64.94
2022-12-18T14:59:28.191Z,65.31
2022-12-18T15:02:06.032Z,65.51
2022-12-18T15:04:36.552Z,65.64
2022-12-18T15:07:08.068Z,66.10
2022-12-18T15:09:36.036Z,66.10
2022-12-18T15:12:04.576Z,66.55
2022-12-18T15:14:40.348Z,66.61
2022-12-18T15:17:19.631Z,66.63
2022-12-18T15:19:49.667Z,66.32
2022-12-18T15:22:27.576Z,67.27
2022-12-18T15:24:56.578Z,67.34
2022-12-18T15:27:28.254Z,67.70
2022-12-18T15:30:19.020Z,67.54
2022-12-18T15:32:48.691Z,67.83
2022-12-18T15:35:20.217Z,67.99
2022-12-18T15:37:48.356Z,68.52
2022-12-18T15:40:17.880Z,68.30
2022-12-18T15:43:05.185Z,68.16
2022-12-18T15:45:33.146Z,68.65
2022-12-18T15:48:02.494Z,68.85
2022-12-18T15:50:30.477Z,69.21
2022-12-18T15:52:58.892Z,69.90
2022-12-18T15:55:44.097Z,70.28
2022-12-18T15:58:12.911Z,70.01
2022-12-18T16:00:42.539Z,70.19
2022-12-18T16:03:12.181Z,70.17
2022-12-18T16:05:40.290Z,70.50
2022-12-18T16:08:08.129Z,70.77
2022-12-18T16:10:37.065Z,70.87
2022-12-18T16:13:04.902Z,71.40
2022-12-18T16:15:32.698Z,71.71
2022-12-18T16:18:00.504Z,71.07
2022-12-18T16:20:29.647Z,71.64
2022-12-18T16:22:57.431Z,71.97
2022-12-18T16:25:28.076Z,71.97
2022-12-18T16:27:57.197Z,72.59
2022-12-18T16:30:28.569Z,72.20
2022-12-18T16:32:59.871Z,72.08
2022-12-18T16:35:29.124Z,72.95
2022-12-18T16:37:57.116Z,72.58
2022-12-18T16:40:25.637Z,73.13
2022-12-18T16:42:53.548Z,72.86
2022-12-18T16:45:21.485Z,72.63
2022-12-18T16:47:50.342Z,73.52
2022-12-18T16:50:18.264Z,72.77
2022-12-18T16:52:47.428Z,72.64
2022-12-18T16:55:15.336Z,71.91
2022-12-18T16:57:43.188Z,72.66
2022-12-18T17:00:12.603Z,72.90
2022-12-18T17:02:40.767Z,73.44
2022-12-18T17:05:09.075Z,72.96
2022-12-18T17:07:37.034Z,72.72
2022-12-18T17:10:07.524Z,72.31
2022-12-18T17:12:35.774Z,72.99
2022-12-18T17:15:03.872Z,73.03
2022-12-18T17:17:31.703Z,72.82
2022-12-18T17:19:59.663Z,73.65
2022-12-18T17:22:28.046Z,73.00
2022-12-18T17:24:55.959Z,73.34
2022-12-18T17:27:25.151Z,73.19
2022-12-18T17:29:52.954Z,72.53
2022-12-18T17:32:20.771Z,72.77
2022-12-18T17:34:48.726Z,73.08
2022-12-18T17:37:16.823Z,73.43
2022-12-18T17:39:44.656Z,74.07
2022-12-18T17:42:15.288Z,74.41
2022-12-18T17:44:45.760Z,73.66
2022-12-18T17:47:14.132Z,73.61
2022-12-18T17:49:42.027Z,73.75
2022-12-18T17:52:10.350Z,73.40
2022-12-18T17:54:39.743Z,73.22
2022-12-18T17:57:07.820Z,73.41
2022-12-18T17:59:35.774Z,73.29
2022-12-18T18:02:05.142Z,73.36
2022-12-18T18:04:33.140Z,72.86
2022-12-18T18:07:00.973Z,72.74
2022-12-18T18:09:28.977Z,73.28
2022-12-18T18:12:14.979Z,73.08
2022-12-18T18:14:42.937Z,72.91
2022-12-18T18:17:12.719Z,73.39
2022-12-18T18:19:42.069Z,73.27
2022-12-18T18:22:11.785Z,73.46
2022-12-18T18:24:39.817Z,73.31
2022-12-18T18:27:07.696Z,73.67
2022-12-18T18:29:36.402Z,73.82
2022-12-18T18:32:04.877Z,73.78
2022-12-18T18:34:34.238Z,73.74
2022-12-18T18:37:02.996Z,73.66
2022-12-18T18:39:31.358Z,73.77
2022-12-18T18:42:00.887Z,73.46
2022-12-18T18:44:30.572Z,73.07
2022-12-18T18:46:59.367Z,73.01
2022-12-18T18:49:28.511Z,73.26
2022-12-18T18:51:59.185Z,73.39
2022-12-18T18:54:27.579Z,73.13
2022-12-18T18:57:19.376Z,72.93
2022-12-18T18:59:43.421Z,73.10
2022-12-18T19:02:13.578Z,72.57
2022-12-18T19:04:46.047Z,72.31
2022-12-18T19:07:18.554Z,73.33
2022-12-18T19:09:58.143Z,72.73
2022-12-18T19:12:50.825Z,73.27
2022-12-18T19:15:18.661Z,73.47
2022-12-18T19:17:47.097Z,73.24
2022-12-18T19:20:15.743Z,73.28
2022-12-18T19:22:49.705Z,72.63
2022-12-18T19:25:37.564Z,71.92
2022-12-18T19:28:18.214Z,72.73
2022-12-18T19:30:55.359Z,73.16
2022-12-18T19:33:44.646Z,73.05
2022-12-18T19:36:15.535Z,73.02
2022-12-18T19:38:45.573Z,73.14
2022-12-18T19:41:15.214Z,73.24
2022-12-18T19:43:43.412Z,73.23
2022-12-18T19:46:15.168Z,73.00
2022-12-18T19:48:45.063Z,73.15
2022-12-18T19:51:16.575Z,73.62
2022-12-18T19:53:46.602Z,73.37
2022-12-18T19:56:16.187Z,73.28
2022-12-18T19:58:45.149Z,72.52
2022-12-18T20:01:13.542Z,73.55
2022-12-18T20:03:46.965Z,72.85
2022-12-18T20:06:24.729Z,74.25
2022-12-18T20:08:57.989Z,73.83
2022-12-18T20:11:28.966Z,73.91
2022-12-18T20:13:57.214Z,74.06
2022-12-18T20:16:25.622Z,72.98
2022-12-18T20:18:53.648Z,73.40
2022-12-18T20:21:21.740Z,73.26
2022-12-18T20:23:49.628Z,73.43
2022-12-18T20:26:19.315Z,73.68
2022-12-18T20:28:47.282Z,73.26
2022-12-18T20:31:15.337Z,73.44
2022-12-18T20:33:44.575Z,73.58
2022-12-18T20:36:20.155Z,73.92
2022-12-18T20:38:51.528Z,73.96
2022-12-18T20:41:24.377Z,73.88
2022-12-18T20:43:52.348Z,73.86
2022-12-18T20:46:20.494Z,74.13
2022-12-18T20:48:48.746Z,73.19
2022-12-18T20:51:18.837Z,73.70
2022-12-18T20:53:47.770Z,74.19
2022-12-18T20:56:20.828Z,74.00
2022-12-18T20:58:53.664Z,74.43
2022-12-18T21:01:24.886Z,73.75
2022-12-18T21:03:53.530Z,72.94
2022-12-18T21:06:23.600Z,72.94
2022-12-18T21:08:51.596Z,72.04
2022-12-18T21:11:45.564Z,72.03
2022-12-18T21:14:17.797Z,72.64
2022-12-18T21:16:46.626Z,72.39
2022-12-18T21:19:18.746Z,72.77
2022-12-18T21:21:47.629Z,72.40
2022-12-18T21:24:16.361Z,72.82
2022-12-18T21:26:46.319Z,72.78
2022-12-18T21:29:17.811Z,73.00
2022-12-18T21:31:46.370Z,73.26
2022-12-18T21:34:17.005Z,73.45
2022-12-18T21:36:45.025Z,73.69
2022-12-18T21:39:14.434Z,73.72
2022-12-18T21:41:59.955Z,74.52
2022-12-18T21:44:29.546Z,73.54
2022-12-18T21:47:04.582Z,73.48
2022-12-18T21:49:37.374Z,73.77
2022-12-18T21:52:05.610Z,74.30
2022-12-18T21:54:33.517Z,74.04
2022-12-18T21:57:03.030Z,75.08
2022-12-18T21:59:34.719Z,74.90
2022-12-18T22:02:05.058Z,74.96
2022-12-18T22:04:33.183Z,75.02
2022-12-18T22:07:02.580Z,74.90
2022-12-18T22:09:30.448Z,75.03
2022-12-18T22:11:59.068Z,75.17
2022-12-18T22:14:27.188Z,74.79
2022-12-18T22:16:57.500Z,74.33
2022-12-18T22:19:26.584Z,73.49
2022-12-18T22:21:55.267Z,73.63
2022-12-18T22:24:26.233Z,73.77
2022-12-18T22:27:01.782Z,73.89
2022-12-18T22:29:44.069Z,73.90
2022-12-18T22:32:17.820Z,73.46
2022-12-18T22:35:04.882Z,73.24
2022-12-18T22:37:34.054Z,72.96
2022-12-18T22:40:03.075Z,72.60
2022-12-18T22:42:32.534Z,73.33
2022-12-18T22:45:00.671Z,73.49
2022-12-18T22:47:30.813Z,73.10
2022-12-18T22:49:59.396Z,72.89
2022-12-18T22:52:27.243Z,72.68
2022-12-18T22:54:55.302Z,72.75
2022-12-18T22:57:23.784Z,72.58
2022-12-18T22:59:52.166Z,72.39
2022-12-18T23:02:20.790Z,72.54
2022-12-18T23:04:50.161Z,72.71
2022-12-18T23:07:18.143Z,72.14
2022-12-18T23:09:46.118Z,72.28
2022-12-18T23:12:17.816Z,72.13
2022-12-18T23:14:47.199Z,72.53
2022-12-18T23:17:15.199Z,72.77
2022-12-18T23:19:48.779Z,72.17
2022-12-18T23:22:18.642Z,72.47
2022-12-18T23:24:47.425Z,73.14
2022-12-18T23:27:15.354Z,72.34
2022-12-18T23:29:43.437Z,72.77
2022-12-18T23:32:13.540Z,73.36
2022-12-18T23:34:41.490Z,72.96
2022-12-18T23:37:09.505Z,72.85
2022-12-18T23:39:38.847Z,73.18
2022-12-18T23:42:06.948Z,73.46
2022-12-18T23:44:35.021Z,73.02
2022-12-18T23:47:04.559Z,72.86
2022-12-18T23:49:32.668Z,73.12
2022-12-18T23:52:00.599Z,73.53
2022-12-18T23:54:32.878Z,73.67
2022-12-18T23:57:02.790Z,73.25
2022-12-18T23:59:30.734Z,73.91
